Time;durP1;ratioP1;P1;durP2;ratioP2;P2;SDS_P1;SDS_P2;PMS_P1;PMS_P2;Temp;Humidity;BMP_temperature;BMP_pressure;BME280_temperature;BME280_humidity;BME280_pressure;Samples;Min_cycle;Max_cycle;Signal;HPM_P1;HPM_P2
2023/04/03 00:00:11;;;;;;;8.67;3.60;;;;;;;;;;4992725;28;20160;-76
2023/04/03 00:02:37;;;;;;;8.00;3.60;;;;;;;;;;4992198;28;20030;-76
2023/04/03 00:05:04;;;;;;;6.73;3.50;;;;;;;;;;4991491;28;20299;-75
2023/04/03 00:07:30;;;;;;;6.10;4.17;;;;;;;;;;4994603;28;20030;-75
2023/04/03 00:09:56;;;;;;;7.73;5.23;;;;;;;;;;4995466;28;20277;-75
2023/04/03 00:12:22;;;;;;;6.70;4.13;;;;;;;;;;4994490;28;20325;-75
2023/04/03 00:14:48;;;;;;;8.93;5.30;;;;;;;;;;5008689;28;20380;-75
2023/04/03 00:17:14;;;;;;;7.77;4.90;;;;;;;;;;4991649;28;20041;-75
2023/04/03 00:19:40;;;;;;;10.77;5.07;;;;;;;;;;5007132;28;20034;-75
2023/04/03 00:22:06;;;;;;;7.33;5.20;;;;;;;;;;4993009;28;20276;-76
2023/04/03 00:24:32;;;;;;;11.43;6.03;;;;;;;;;;4985934;28;20117;-76
2023/04/03 00:26:58;;;;;;;9.97;5.77;;;;;;;;;;4996907;28;21650;-76
2023/04/03 00:29:24;;;;;;;12.77;6.77;;;;;;;;;;4990006;28;20025;-74
2023/04/03 00:31:50;;;;;;;11.20;7.93;;;;;;;;;;4994044;28;20038;-75
2023/04/03 00:34:16;;;;;;;8.40;5.53;;;;;;;;;;4989317;28;20045;-76
2023/04/03 00:36:46;;;;;;;8.57;6.43;;;;;;;;;;4995925;28;20025;-75
2023/04/03 00:39:12;;;;;;;15.43;7.27;;;;;;;;;;4986376;28;20045;-75
2023/04/03 00:41:38;;;;;;;10.63;6.90;;;;;;;;;;4990197;28;20591;-75
2023/04/03 00:44:28;;;;;;;13.43;7.87;;;;;;;;;;5008701;28;20034;-75
2023/04/03 00:46:54;;;;;;;10.87;7.33;;;;;;;;;;4972426;28;20265;-75
2023/04/03 00:49:20;;;;;;;10.50;8.10;;;;;;;;;;4997114;28;20295;-75
2023/04/03 00:51:49;;;;;;;13.37;8.27;;;;;;;;;;4993537;28;20355;-75
2023/04/03 00:54:15;;;;;;;13.50;7.80;;;;;;;;;;4989517;28;20277;-75
2023/04/03 00:56:44;;;;;;;14.90;9.23;;;;;;;;;;4995058;28;20284;-75
2023/04/03 00:59:10;;;;;;;12.67;8.60;;;;;;;;;;5005478;28;20044;-76
2023/04/03 01:01:37;;;;;;;14.97;8.70;;;;;;;;;;4993323;28;20285;-76
2023/04/03 01:04:03;;;;;;;17.13;10.13;;;;;;;;;;4994224;28;20131;-75
2023/04/03 01:06:36;;;;;;;18.83;10.97;;;;;;;;;;5006425;28;20287;-76
2023/04/03 01:09:05;;;;;;;12.83;9.57;;;;;;;;;;5007501;28;20324;-75
2023/04/03 01:11:31;;;;;;;14.63;9.47;;;;;;;;;;4990555;28;20334;-75
2023/04/03 01:13:57;;;;;;;20.83;10.70;;;;;;;;;;5008526;28;20281;-75
2023/04/03 01:16:24;;;;;;;19.50;10.23;;;;;;;;;;4992641;28;20607;-75
2023/04/03 01:18:50;;;;;;;18.13;11.70;;;;;;;;;;4991690;28;20128;-75
2023/04/03 01:21:25;;;;;;;22.00;11.00;;;;;;;;;;4989933;28;20644;-75
2023/04/03 01:23:57;;;;;;;20.43;10.63;;;;;;;;;;4993661;28;20284;-75
2023/04/03 01:26:23;;;;;;;14.70;10.30;;;;;;;;;;4992376;28;20336;-75
2023/04/03 01:28:49;;;;;;;17.83;11.03;;;;;;;;;;4996230;28;20044;-75
2023/04/03 01:31:15;;;;;;;14.57;10.37;;;;;;;;;;4993350;28;20041;-75
2023/04/03 01:33:41;;;;;;;17.77;11.40;;;;;;;;;;4991802;28;20771;-75
2023/04/03 01:36:08;;;;;;;15.03;11.60;;;;;;;;;;4993069;28;20044;-75
2023/04/03 01:38:36;;;;;;;15.70;10.93;;;;;;;;;;4993864;28;20676;-75
2023/04/03 01:41:02;;;;;;;16.57;11.17;;;;;;;;;;4994457;28;20765;-75
2023/04/03 01:43:28;;;;;;;18.30;11.10;;;;;;;;;;5008059;28;20729;-75
2023/04/03 01:45:54;;;;;;;18.93;11.70;;;;;;;;;;5008033;28;20284;-75
2023/04/03 01:48:23;;;;;;;15.03;11.53;;;;;;;;;;4988915;28;20049;-75
2023/04/03 01:50:49;;;;;;;19.30;11.53;;;;;;;;;;5005176;28;20281;-75
2023/04/03 01:53:16;;;;;;;15.90;11.70;;;;;;;;;;4993822;28;20281;-75
2023/04/03 01:55:42;;;;;;;16.57;11.77;;;;;;;;;;5007148;28;20323;-76
2023/04/03 01:58:08;;;;;;;20.13;12.27;;;;;;;;;;4988501;28;20268;-76
2023/04/03 02:00:34;;;;;;;18.10;11.87;;;;;;;;;;5006715;28;20280;-76
2023/04/03 02:03:00;;;;;;;21.10;14.27;;;;;;;;;;5006712;28;20866;-75
2023/04/03 02:05:26;;;;;;;20.50;13.73;;;;;;;;;;5007943;28;20297;-75
2023/04/03 02:07:52;;;;;;;18.83;13.17;;;;;;;;;;4985360;28;20280;-75
2023/04/03 02:10:18;;;;;;;21.20;13.47;;;;;;;;;;4992678;28;20450;-75
2023/04/03 02:12:47;;;;;;;16.73;12.53;;;;;;;;;;5007925;28;20106;-75
2023/04/03 02:15:13;;;;;;;21.87;13.33;;;;;;;;;;5004743;28;20290;-75
2023/04/03 02:17:39;;;;;;;24.07;14.43;;;;;;;;;;5004968;28;20894;-75
2023/04/03 02:20:05;;;;;;;22.00;13.50;;;;;;;;;;4987029;28;20037;-75
2023/04/03 02:22:31;;;;;;;23.47;14.43;;;;;;;;;;4993482;28;20041;-75
2023/04/03 02:24:57;;;;;;;20.33;13.87;;;;;;;;;;4994555;28;20327;-76
2023/04/03 02:27:24;;;;;;;25.60;14.97;;;;;;;;;;5006705;28;20280;-75
2023/04/03 02:29:50;;;;;;;21.40;14.17;;;;;;;;;;5009935;28;20033;-74
2023/04/03 02:32:16;;;;;;;20.47;14.47;;;;;;;;;;4995840;28;20281;-76
2023/04/03 02:34:42;;;;;;;27.03;15.33;;;;;;;;;;5007166;28;20319;-75
2023/04/03 02:37:08;;;;;;;24.83;15.33;;;;;;;;;;4993890;28;20092;-75
2023/04/03 02:39:34;;;;;;;24.33;17.27;;;;;;;;;;4987559;28;20446;-75
2023/04/03 02:42:00;;;;;;;24.27;14.73;;;;;;;;;;4988088;28;20039;-75
2023/04/03 02:44:28;;;;;;;28.77;15.93;;;;;;;;;;4989753;28;20738;-75
2023/04/03 02:46:54;;;;;;;21.97;14.40;;;;;;;;;;5002808;28;20030;-76
2023/04/03 02:49:20;;;;;;;24.27;13.80;;;;;;;;;;4992301;28;20369;-76
2023/04/03 02:51:47;;;;;;;25.03;14.23;;;;;;;;;;4993438;28;20308;-75
2023/04/03 02:54:13;;;;;;;19.63;14.30;;;;;;;;;;4989584;28;20073;-75
2023/04/03 02:56:39;;;;;;;23.13;13.73;;;;;;;;;;4987973;28;20284;-75
2023/04/03 02:59:05;;;;;;;22.00;12.67;;;;;;;;;;4989838;28;20768;-75
2023/04/03 03:01:32;;;;;;;21.77;13.70;;;;;;;;;;4990637;28;20292;-75
2023/04/03 03:03:59;;;;;;;21.97;13.30;;;;;;;;;;4991970;28;20680;-76
2023/04/03 03:06:25;;;;;;;25.37;12.90;;;;;;;;;;4996215;28;20284;-76
2023/04/03 03:08:51;;;;;;;22.50;13.40;;;;;;;;;;4992921;28;20289;-76
2023/04/03 03:11:17;;;;;;;19.97;13.43;;;6.50;99.90;;;;;;4992558;28;20455;-75
2023/04/03 03:13:45;;;;;;;21.17;13.23;;;-0.70;99.90;;;;;;4989345;28;20368;-76
2023/04/03 03:16:10;;;;;;;23.70;13.40;;;-0.90;99.90;;;;;;4989160;28;20034;-75
2023/04/03 03:18:36;;;;;;;25.47;13.50;;;;;;;;;;5014079;28;20280;-75
2023/04/03 03:21:03;;;;;;;25.73;12.80;;;;;;;;;;5009533;28;20034;-76
2023/04/03 03:23:31;;;;;;;20.37;12.83;;;;;;;;;;5007160;28;20097;-75
2023/04/03 03:26:04;;;;;;;20.20;12.20;;;-1.00;99.90;;;;;;4995413;28;20886;-75
2023/04/03 03:28:32;;;;;;;19.40;12.00;;;-1.00;99.90;;;;;;4995143;28;20293;-75
2023/04/03 03:30:59;;;;;;;20.60;12.97;;;-1.00;99.90;;;;;;5006869;28;20041;-76
2023/04/03 03:33:25;;;;;;;21.77;13.87;;;-1.00;99.90;;;;;;4995643;28;20292;-76
2023/04/03 03:35:54;;;;;;;20.73;13.57;;;-0.90;99.90;;;;;;5010788;28;20269;-75
2023/04/03 03:38:20;;;;;;;20.90;13.53;;;-1.00;99.90;;;;;;5009182;28;20302;-75
2023/04/03 03:40:48;;;;;;;20.23;12.97;;;-1.10;99.90;;;;;;4990540;28;20745;-77
2023/04/03 03:43:17;;;;;;;22.77;13.10;;;-1.20;99.90;;;;;;4993275;28;20054;-76
2023/04/03 03:45:46;;;;;;;18.90;12.83;;;-1.10;99.90;;;;;;5006066;28;20281;-75
2023/04/03 03:48:11;;;;;;;18.33;12.73;;;-1.10;99.90;;;;;;4992532;28;20276;-76
2023/04/03 03:50:37;;;;;;;21.80;13.47;;;-1.20;99.90;;;;;;4992201;28;20380;-75
2023/04/03 03:53:05;;;;;;;17.73;13.13;;;-1.00;99.90;;;;;;4991193;28;20025;-76
2023/04/03 03:55:33;;;;;;;17.80;12.10;;;-1.10;99.90;;;;;;5009858;28;20026;-76
2023/04/03 03:58:00;;;;;;;23.80;13.87;;;-1.20;99.90;;;;;;4991042;28;20269;-75
2023/04/03 04:00:26;;;;;;;19.20;11.47;;;-1.20;99.90;;;;;;4990961;28;20367;-75
2023/04/03 04:02:52;;;;;;;20.07;12.00;;;-1.10;99.90;;;;;;4994901;28;22159;-75
2023/04/03 04:05:17;;;;;;;16.97;10.97;;;-1.10;99.90;;;;;;4991553;28;20022;-75
2023/04/03 04:07:43;;;;;;;17.33;9.87;;;-1.00;99.90;;;;;;4991621;28;20087;-76
2023/04/03 04:10:09;;;;;;;14.90;9.43;;;-1.10;99.90;;;;;;4993255;28;20455;-75
2023/04/03 04:12:37;;;;;;;16.37;9.47;;;-1.00;99.90;;;;;;4990055;28;20152;-75
2023/04/03 04:15:03;;;;;;;14.17;7.63;;;-1.10;99.90;;;;;;4990573;28;20372;-75
2023/04/03 04:17:29;;;;;;;15.53;8.20;;;-1.00;99.90;;;;;;4992374;28;22110;-75
2023/04/03 04:19:55;;;;;;;17.50;8.10;;;-1.00;99.90;;;;;;5007526;28;20273;-75
2023/04/03 04:22:20;;;;;;;15.23;8.23;;;-1.00;99.90;;;;;;5008779;28;20105;-76
2023/04/03 04:24:46;;;;;;;17.97;8.10;;;-1.00;99.90;;;;;;4990611;28;20030;-75
2023/04/03 04:27:11;;;;;;;13.17;8.37;;;-1.00;99.90;;;;;;4995082;28;20040;-75
2023/04/03 04:29:37;;;;;;;13.57;8.63;;;-1.10;99.90;;;;;;4990095;28;20036;-75
2023/04/03 04:32:03;;;;;;;16.30;6.93;;;-0.90;99.90;;;;;;4992298;28;20029;-75
2023/04/03 04:34:29;;;;;;;12.20;6.80;;;-0.90;99.90;;;;;;4996138;28;20069;-75
2023/04/03 04:36:55;;;;;;;12.37;6.60;;;-0.90;99.90;;;;;;4988565;28;20312;-76
2023/04/03 04:39:21;;;;;;;10.37;6.10;;;-0.90;99.90;;;;;;4990186;28;20645;-75
2023/04/03 04:41:49;;;;;;;10.90;5.63;;;-0.90;99.90;;;;;;5010360;28;20030;-75
2023/04/03 04:44:15;;;;;;;18.93;5.70;;;-0.80;99.90;;;;;;4995837;28;20034;-76
2023/04/03 04:46:42;;;;;;;6.70;4.93;;;-0.80;99.90;;;;;;4993011;28;20765;-75
2023/04/03 04:49:08;;;;;;;9.90;5.23;;;-0.70;99.90;;;;;;4998478;28;20035;-75
2023/04/03 04:51:34;;;;;;;10.53;5.93;;;-0.70;99.90;;;;;;4991421;28;20274;-75
2023/04/03 04:53:59;;;;;;;8.97;5.43;;;-0.60;99.90;;;;;;4991773;28;20028;-75
2023/04/03 04:56:27;;;;;;;13.00;6.73;;;-0.60;99.90;;;;;;5007663;28;20022;-76
2023/04/03 04:58:53;;;;;;;6.87;5.00;;;-0.70;99.90;;;;;;4993891;28;20026;-75
2023/04/03 05:01:19;;;;;;;11.07;5.17;;;-0.80;99.90;;;;;;4994572;28;20281;-75
2023/04/03 05:03:44;;;;;;;8.57;4.83;;;-0.80;99.90;;;;;;5007379;28;20041;-76
2023/04/03 05:06:10;;;;;;;8.97;4.60;;;-0.90;99.90;;;;;;4990912;28;20076;-75
2023/04/03 05:08:35;;;;;;;9.07;4.67;;;-0.90;99.90;;;;;;5002727;28;20027;-76
2023/04/03 05:11:01;;;;;;;8.90;4.90;;;-0.90;99.90;;;;;;4992385;28;20028;-75
2023/04/03 05:13:27;;;;;;;9.93;4.90;;;-0.70;99.90;;;;;;4992351;28;20105;-76
2023/04/03 05:15:52;;;;;;;13.70;5.13;;;-0.60;99.90;;;;;;5010362;28;20029;-75
2023/04/03 05:18:18;;;;;;;11.47;4.80;;;-0.60;99.90;;;;;;4991337;28;20017;-75
2023/04/03 05:20:44;;;;;;;8.67;4.80;;;-0.70;99.90;;;;;;4988396;28;20125;-75
2023/04/03 05:23:12;;;;;;;12.70;4.83;;;-0.80;99.90;;;;;;5007436;28;20188;-75
2023/04/03 05:25:40;;;;;;;10.63;4.67;;;-0.70;99.90;;;;;;4990069;28;20030;-76
2023/04/03 05:28:06;;;;;;;7.30;4.80;;;-0.60;99.90;;;;;;4989284;28;20776;-75
2023/04/03 05:30:32;;;;;;;12.53;4.47;;;-0.50;99.90;;;;;;4988880;28;20895;-75
2023/04/03 05:33:00;;;;;;;9.67;3.90;;;-0.40;99.90;;;;;;4992279;28;20365;-75
2023/04/03 05:35:26;;;;;;;12.70;4.00;;;-0.30;99.90;;;;;;4992957;28;20615;-75
2023/04/03 05:37:52;;;;;;;11.30;3.97;;;-0.30;99.90;;;;;;4991214;28;20281;-76
2023/04/03 05:40:20;;;;;;;9.70;4.50;;;-0.30;99.90;;;;;;4991406;28;20036;-75
2023/04/03 05:42:45;;;;;;;9.40;3.70;;;-0.10;99.90;;;;;;4992238;28;20025;-75
2023/04/03 05:45:11;;;;;;;10.43;3.57;;;-0.10;99.90;;;;;;4993347;28;20329;-76
2023/04/03 05:47:37;;;;;;;5.23;3.13;;;0.00;99.90;;;;;;4994911;28;20042;-75
2023/04/03 05:50:05;;;;;;;9.97;3.30;;;0.00;99.90;;;;;;4989146;28;20033;-75
2023/04/03 05:52:37;;;;;;;7.07;2.93;;;0.20;99.90;;;;;;5009481;28;20036;-76
2023/04/03 05:55:03;;;;;;;7.22;3.20;;;0.20;99.90;;;;;;4988461;28;20692;-76
2023/04/03 05:57:31;;;;;;;11.87;4.07;;;0.30;99.90;;;;;;4988763;28;20134;-76
2023/04/03 05:59:57;;;;;;;9.87;3.77;;;0.40;99.90;;;;;;4988971;28;20037;-76
2023/04/03 06:02:24;;;;;;;6.43;3.17;;;0.50;99.90;;;;;;5005462;28;20334;-75
2023/04/03 06:04:53;;;;;;;8.00;3.47;;;0.60;99.90;;;;;;4987411;28;20034;-75
2023/04/03 06:07:22;;;;;;;6.03;2.80;;;0.80;99.90;;;;;;5006055;28;20289;-75
2023/04/03 06:09:49;;;;;;;5.57;2.73;;;0.80;99.90;;;;;;4989056;28;20291;-76
2023/04/03 06:12:14;;;;;;;7.73;3.17;;;1.10;99.90;;;;;;5008329;28;20280;-76
2023/04/03 06:14:40;;;;;;;8.60;2.93;;;1.10;99.90;;;;;;4989696;28;20312;-76
2023/04/03 06:17:08;;;;;;;6.80;3.07;;;1.40;99.90;;;;;;4986955;28;21689;-76
2023/04/03 06:19:33;;;;;;;11.10;2.80;;;1.60;99.90;;;;;;4987439;28;21195;-76
2023/04/03 06:22:00;;;;;;;8.43;2.60;;;1.80;99.90;;;;;;4992785;28;20292;-75
2023/04/03 06:24:26;;;;;;;15.87;7.43;;;2.00;99.90;;;;;;4988045;28;20064;-76
2023/04/03 06:26:52;;;;;;;34.33;20.90;;;2.10;99.90;;;;;;4990263;28;20312;-76
2023/04/03 06:29:19;;;;;;;21.40;13.07;;;1.90;99.90;;;;;;5007306;28;20030;-76
2023/04/03 06:31:45;;;;;;;16.73;10.57;;;1.90;99.90;;;;;;5005873;28;20289;-76
2023/04/03 06:34:11;;;;;;;32.67;22.97;;;2.00;99.90;;;;;;4988587;28;20781;-76
2023/04/03 06:36:37;;;;;;;34.87;23.27;;;2.00;99.90;;;;;;4989871;28;20030;-77
2023/04/03 06:39:03;;;;;;;22.63;16.83;;;1.90;99.90;;;;;;4988655;28;20291;-76
2023/04/03 06:41:28;;;;;;;23.37;18.10;;;2.00;99.90;;;;;;4990824;28;20531;-76
2023/04/03 06:43:56;;;;;;;6.23;4.93;;;2.10;99.90;;;;;;5006910;28;20034;-76
2023/04/03 06:46:22;;;;;;;13.47;3.10;;;2.30;99.90;;;;;;4990202;28;20026;-76
2023/04/03 06:48:49;;;;;;;6.83;2.20;;;2.40;99.90;;;;;;5006534;28;20308;-77
2023/04/03 06:51:30;;;;;;;11.03;2.73;;;2.50;99.90;;;;;;4991512;28;20730;-76
2023/04/03 06:53:58;;;;;;;7.27;2.27;;;2.40;99.90;;;;;;4993581;28;20902;-76
2023/04/03 06:56:24;;;;;;;8.87;3.07;;;2.40;99.90;;;;;;5009358;28;20299;-77
2023/04/03 06:58:51;;;;;;;10.20;4.60;;;2.50;99.90;;;;;;4995810;28;20300;-76
2023/04/03 07:01:19;;;;;;;3.70;1.87;;;2.80;99.90;;;;;;4997285;28;22001;-76
2023/04/03 07:03:47;;;;;;;6.27;2.80;;;2.90;99.90;;;;;;5009109;28;20301;-76
2023/04/03 07:06:14;;;;;;;7.63;1.80;;;3.00;99.90;;;;;;4991159;28;20277;-76
2023/04/03 07:08:41;;;;;;;6.03;3.20;;;3.20;99.90;;;;;;4993350;28;20280;-76
2023/04/03 07:11:06;;;;;;;22.33;17.27;;;3.20;99.90;;;;;;4997158;28;20364;-76
2023/04/03 07:13:32;;;;;;;10.63;5.87;;;3.30;99.90;;;;;;4993604;28;20404;-76
2023/04/03 07:15:58;;;;;;;7.83;2.53;;;3.20;99.90;;;;;;4991367;28;20477;-75
2023/04/03 07:18:25;;;;;;;3.43;2.40;;;3.50;99.90;;;;;;4993390;28;20026;-76
2023/04/03 07:20:53;;;;;;;6.13;1.40;;;3.60;99.90;;;;;;4992314;28;20026;-75
2023/04/03 07:23:19;;;;;;;4.73;1.70;;;3.70;99.90;;;;;;4990556;28;20281;-77
2023/04/03 07:25:49;;;;;;;9.23;2.13;;;3.80;99.90;;;;;;4995894;28;20343;-76
2023/04/03 07:28:15;;;;;;;8.23;3.57;;;3.80;99.90;;;;;;4988751;28;20027;-76
2023/04/03 07:30:46;;;;;;;5.23;1.73;;;3.80;99.90;;;;;;4996582;28;20272;-76
2023/04/03 07:33:13;;;;;;;5.13;1.40;;;3.80;99.90;;;;;;5009331;28;20113;-77
2023/04/03 07:35:40;;;;;;;5.17;1.80;;;;;;;;;;4988948;28;20037;-76
2023/04/03 07:38:06;;;;;;;5.83;1.20;;;;;;;;;;4992503;28;20034;-77
2023/04/03 07:40:32;;;;;;;4.37;1.80;;;;;;;;;;4989220;28;20038;-76
2023/04/03 07:42:58;;;;;;;13.60;6.60;;;;;;;;;;4985498;28;20033;-76
2023/04/03 07:45:24;;;;;;;43.50;20.50;;;;;;;;;;5009471;28;20647;-76
2023/04/03 07:47:51;;;;;;;34.13;15.17;;;;;;;;;;4992752;28;20455;-75
2023/04/03 07:50:17;;;;;;;32.13;15.53;;;;;;;;;;4990894;28;20033;-76
2023/04/03 07:52:43;;;;;;;20.47;8.77;;;;;;;;;;4994894;28;20041;-75
2023/04/03 07:55:12;;;;;;;8.30;3.63;;;;;;;;;;4996178;28;20046;-77
2023/04/03 07:57:38;;;;;;;6.07;2.60;;;;;;;;;;5011664;28;20083;-76
2023/04/03 08:00:07;;;;;;;12.17;3.57;;;;;;;;;;4993234;28;20117;-77
2023/04/03 08:02:33;;;;;;;4.37;1.77;;;;;;;;;;4989501;28;20358;-76
2023/04/03 08:04:59;;;;;;;7.90;1.80;;;;;;;;;;5006556;28;20030;-77
2023/04/03 08:07:26;;;;;;;4.43;2.10;;;;;;;;;;5008170;28;20045;-76
2023/04/03 08:09:52;;;;;;;9.83;1.83;;;3.80;99.90;;;;;;4996444;28;20026;-76
2023/04/03 08:12:18;;;;;;;5.00;1.70;;;4.40;99.90;;;;;;4993945;28;20459;-76
2023/04/03 08:14:43;;;;;;;3.83;1.80;;;4.50;99.90;;;;;;5007318;28;20029;-76
2023/04/03 08:17:11;;;;;;;5.03;2.07;;;4.60;99.90;;;;;;5007941;28;20026;-76
2023/04/03 08:19:39;;;;;;;6.10;1.77;;;4.60;99.90;;;;;;4996467;28;20447;-77
2023/04/03 08:22:06;;;;;;;4.13;1.50;;;4.70;99.90;;;;;;4991200;28;20446;-77
2023/04/03 08:24:34;;;;;;;8.37;2.03;;;4.80;99.90;;;;;;5009899;28;20083;-76
2023/04/03 08:27:01;;;;;;;6.40;1.53;;;4.80;99.90;;;;;;4992249;28;20026;-76
2023/04/03 08:29:27;;;;;;;5.00;1.53;;;4.80;99.90;;;;;;4995200;28;20463;-76
2023/04/03 08:31:52;;;;;;;6.00;1.63;;;4.80;99.90;;;;;;4990436;28;20116;-76
2023/04/03 08:34:19;;;;;;;6.27;1.50;;;4.90;99.90;;;;;;4990986;28;20482;-75
2023/04/03 08:36:45;;;;;;;6.23;1.60;;;4.90;99.90;;;;;;4994695;28;20355;-76
2023/04/03 08:39:10;;;;;;;5.20;1.93;;;5.00;99.90;;;;;;4991914;28;20029;-76
2023/04/03 08:41:42;;;;;;;6.67;1.87;;;4.90;99.90;;;;;;5008698;28;20064;-77
2023/04/03 08:44:26;;;;;;;4.07;1.47;;;5.00;99.90;;;;;;4991799;28;20120;-76
2023/04/03 08:47:13;;;;;;;9.93;1.43;;;5.00;99.90;;;;;;5008624;28;20014;-76
2023/04/03 08:49:51;;;;;;;4.97;1.67;;;5.10;99.90;;;;;;4997497;28;20018;-75
2023/04/03 08:52:20;;;;;;;3.70;1.40;;;5.10;99.90;;;;;;4994482;28;20100;-77
2023/04/03 08:54:50;;;;;;;6.20;1.40;;;5.20;99.90;;;;;;4992244;28;20048;-76
2023/04/03 08:57:20;;;;;;;7.90;1.63;;;5.30;99.90;;;;;;4992760;28;20552;-76
2023/04/03 08:59:45;;;;;;;6.50;1.80;;;5.30;99.90;;;;;;5008134;28;20030;-76
2023/04/03 09:02:34;;;;;;;7.07;1.90;;;5.40;99.90;;;;;;4992461;28;20125;-76
2023/04/03 09:05:03;;;;;;;6.73;1.60;;;5.40;99.90;;;;;;4987945;28;20645;-76
2023/04/03 09:07:52;;;;;;;7.70;1.07;;;5.40;99.90;;;;;;4993311;28;20065;-76
2023/04/03 09:10:26;;;;;;;4.10;1.20;;;5.40;99.90;;;;;;4994267;28;20026;-77
2023/04/03 09:13:05;;;;;;;2.83;1.40;;;5.60;99.90;;;;;;5008097;28;20022;-77
2023/04/03 09:15:31;;;;;;;5.07;1.07;;;;;;;;;;4989279;28;20458;-75
2023/04/03 09:18:00;;;;;;;5.30;1.30;;;;;;;;;;5004474;28;20027;-76
2023/04/03 09:20:45;;;;;;;2.03;1.10;;;;;;;;;;4987389;28;20350;-76
2023/04/03 09:23:19;;;;;;;5.53;1.80;;;5.80;99.90;;;;;;4992967;28;20033;-77
2023/04/03 09:25:45;;;;;;;3.70;1.33;;;;;;;;;;4991685;28;20081;-76
2023/04/03 09:28:11;;;;;;;2.83;0.97;;;;;;;;;;5011928;28;20057;-77
2023/04/03 09:30:38;;;;;;;3.57;1.47;;;;;;;;;;5009359;28;20022;-77
2023/04/03 09:33:06;;;;;;;5.73;1.60;;;;;;;;;;4991312;28;20052;-77
2023/04/03 09:35:34;;;;;;;4.80;1.10;;;;;;;;;;5007332;28;20184;-76
2023/04/03 09:38:13;;;;;;;4.20;1.10;;;;;;;;;;4996614;28;20121;-76
2023/04/03 09:40:43;;;;;;;5.43;1.00;;;;;;;;;;4994982;28;20026;-76
2023/04/03 09:43:28;;;;;;;12.60;1.40;;;;;;;;;;4987316;28;20034;-76
2023/04/03 09:45:55;;;;;;;5.03;1.50;;;;;;;;;;4989066;28;20030;-76
2023/04/03 09:48:23;;;;;;;4.17;1.47;;;;;;;;;;4987805;28;20030;-76
2023/04/03 09:51:06;;;;;;;4.33;1.60;;;;;;;;;;4987503;28;20501;-76
2023/04/03 09:53:35;;;;;;;3.00;1.10;;;;;;;;;;4992497;28;20029;-75
2023/04/03 09:56:03;;;;;;;8.70;1.47;;;;;;;;;;4992794;28;20430;-75
2023/04/03 09:58:33;;;;;;;3.43;1.40;;;;;;;;;;4995788;28;20120;-76
2023/04/03 10:01:00;;;;;;;3.47;1.07;;;;;;;;;;4985797;28;20073;-75
2023/04/03 10:03:36;;;;;;;6.17;1.30;;;;;;;;;;5005700;28;20038;-76
2023/04/03 10:06:03;;;;;;;4.10;1.27;;;;;;;;;;5004287;28;20041;-76
2023/04/03 10:08:31;;;;;;;2.47;0.90;;;;;;;;;;4987111;28;20027;-76
2023/04/03 10:11:08;;;;;;;7.03;0.90;;;;;;;;;;5003635;28;20336;-76
2023/04/03 10:13:36;;;;;;;1.97;0.80;;;;;;;;;;4989864;28;20031;-76
2023/04/03 10:16:07;;;;;;;2.47;0.80;;;;;;;;;;4990034;28;20025;-75
2023/04/03 10:18:42;;;;;;;2.10;0.80;;;;;;;;;;5006200;28;20088;-76
2023/04/03 10:21:20;;;;;;;4.13;0.80;;;;;;;;;;5004985;28;20042;-77
2023/04/03 10:23:51;;;;;;;6.87;1.33;;;;;;;;;;5008113;28;20034;-77
2023/04/03 10:26:25;;;;;;;1.60;0.80;;;;;;;;;;5006441;28;20033;-77
2023/04/03 10:29:26;;;;;;;2.57;0.60;;;;;;;;;;5007359;28;20561;-77
2023/04/03 10:32:00;;;;;;;2.87;0.90;;;;;;;;;;4957602;28;20545;-77
2023/04/03 10:34:38;;;;;;;2.87;1.00;;;;;;;;;;5002046;28;20105;-76
2023/04/03 10:37:12;;;;;;;7.50;0.70;;;;;;;;;;5010079;28;20041;-77
2023/04/03 10:39:38;;;;;;;3.37;1.23;;;;;;;;;;4993242;28;20129;-76
2023/04/03 10:42:07;;;;;;;5.33;1.00;;;;;;;;;;4996630;28;20433;-78
2023/04/03 10:44:53;;;;;;;2.63;1.00;;;;;;;;;;4996145;28;20030;-76
2023/04/03 10:47:21;;;;;;;2.40;0.93;;;;;;;;;;4992386;28;20026;-77
2023/04/03 10:50:00;;;;;;;3.70;0.80;;;;;;;;;;4992511;28;20355;-76
2023/04/03 10:52:26;;;;;;;2.37;0.80;;;;;;;;;;4999640;28;21745;-75
2023/04/03 10:55:01;;;;;;;1.73;0.70;;;;;;;;;;4988343;28;20030;-77
2023/04/03 10:57:28;;;;;;;2.70;1.37;;;;;;;;;;5007317;28;20038;-77
2023/04/03 10:59:57;;;;;;;5.70;0.87;;;;;;;;;;4997031;28;20048;-75
2023/04/03 11:02:26;;;;;;;2.50;1.00;;;;;;;;;;4996836;28;20089;-77
2023/04/03 11:04:54;;;;;;;1.43;0.67;;;;;;;;;;4995057;28;20037;-77
2023/04/03 11:07:23;;;;;;;3.23;1.03;;;;;;;;;;4995858;28;20033;-77
2023/04/03 11:09:54;;;;;;;3.73;0.60;;;;;;;;;;4989590;28;20041;-76
2023/04/03 11:12:26;;;;;;;2.73;0.80;;;;;;;;;;4987687;28;20025;-76
2023/04/03 11:14:54;;;;;;;3.92;1.00;;;;;;;;;;4997706;28;20464;-76
2023/04/03 11:17:23;;;;;;;3.10;1.33;;;;;;;;;;4996330;28;20121;-77
2023/04/03 11:19:55;;;;;;;4.40;1.07;;;;;;;;;;4999173;28;21690;-77
2023/04/03 11:22:24;;;;;;;5.03;1.10;;;;;;;;;;5008009;28;20466;-77
2023/04/03 11:25:16;;;;;;;1.67;0.70;;;;;;;;;;4994203;28;20034;-76
2023/04/03 11:27:45;;;;;;;2.70;1.47;;;;;;;;;;4995545;28;20443;-77
2023/04/03 11:30:19;;;;;;;3.13;1.20;;;;;;;;;;4998657;28;20026;-76
2023/04/03 11:33:04;;;;;;;2.70;0.77;;;;;;;;;;4991081;28;20336;-77
2023/04/03 11:35:31;;;;;;;2.80;1.30;;;;;;;;;;4990852;28;20134;-77
2023/04/03 11:37:58;;;;;;;2.93;0.80;;;;;;;;;;4990417;28;20049;-77
2023/04/03 11:40:32;;;;;;;2.67;0.80;;;;;;;;;;4998984;28;20382;-77
2023/04/03 11:43:23;;;;;;;3.93;0.60;;;;;;;;;;4993270;28;20026;-77
2023/04/03 11:46:02;;;;;;;2.93;0.60;;;;;;;;;;5006081;28;20461;-76
2023/04/03 11:48:28;;;;;;;3.83;0.80;;;;;;;;;;5010861;28;20030;-77
2023/04/03 11:50:55;;;;;;;3.53;1.10;;;;;;;;;;4994366;28;20084;-76
2023/04/03 11:53:30;;;;;;;3.37;1.20;;;;;;;;;;5008150;28;20037;-76
2023/04/03 11:55:56;;;;;;;5.97;1.27;;;;;;;;;;5008607;28;20034;-77
2023/04/03 11:58:22;;;;;;;13.50;1.30;;;;;;;;;;5008091;28;20021;-77
2023/04/03 12:01:02;;;;;;;3.03;0.90;;;;;;;;;;4995305;28;20348;-76
2023/04/03 12:03:29;;;;;;;4.27;1.00;;;;;;;;;;5006901;28;20053;-77
2023/04/03 12:06:07;;;;;;;3.40;0.70;;;;;;;;;;4992232;28;20025;-77
2023/04/03 12:08:33;;;;;;;1.30;0.57;;;;;;;;;;4993906;28;20022;-77
2023/04/03 12:11:16;;;;;;;3.77;0.60;;;;;;;;;;5005049;28;20026;-77
2023/04/03 12:14:00;;;;;;;3.13;1.07;;;;;;;;;;5009215;28;20041;-77
2023/04/03 12:16:38;;;;;;;7.07;0.80;;;;;;;;;;4995905;28;20142;-76
2023/04/03 12:19:04;;;;;;;2.87;1.10;;;;;;;;;;4995696;28;20034;-75
2023/04/03 12:21:30;;;;;;;3.30;0.63;;;;;;;;;;4989727;28;20041;-76
2023/04/03 12:23:57;;;;;;;4.27;0.80;;;;;;;;;;4995586;28;20042;-77
2023/04/03 12:26:26;;;;;;;1.90;0.73;;;;;;;;;;5009841;28;20030;-76
2023/04/03 12:28:53;;;;;;;1.97;0.60;;;;;;;;;;4990996;28;20087;-76
2023/04/03 12:31:19;;;;;;;2.67;0.70;;;;;;;;;;4992996;28;20041;-77
2023/04/03 12:34:05;;;;;;;4.17;0.93;;;;;;;;;;4990895;28;20036;-77
2023/04/03 12:36:46;;;;;;;1.63;0.57;;;;;;;;;;5007906;28;20038;-77
2023/04/03 12:39:31;;;;;;;2.10;0.67;;;;;;;;;;4994009;28;20099;-76
2023/04/03 12:42:06;;;;;;;3.70;0.90;;;;;;;;;;4992704;28;20033;-77
2023/04/03 12:44:38;;;;;;;3.13;0.80;;;;;;;;;;4990557;28;20037;-76
2023/04/03 12:47:16;;;;;;;2.40;1.02;;;;;;;;;;4988759;28;20026;-76
2023/04/03 12:49:44;;;;;;;2.33;0.97;;;;;;;;;;5007212;28;20030;-77
2023/04/03 12:52:37;;;;;;;1.57;0.50;;;;;;;;;;4995228;28;20068;-76
2023/04/03 12:55:10;;;;;;;4.63;0.68;;;;;;;;;;4966251;28;20046;-76
2023/04/03 12:57:38;;;;;;;4.00;0.87;;;;;;;;;;4992256;28;20414;-76
2023/04/03 13:00:24;;;;;;;3.67;1.20;;;;;;;;;;4994273;28;20021;-76
2023/04/03 13:02:50;;;;;;;1.83;0.80;;;;;;;;;;5010463;28;20045;-77
2023/04/03 13:05:18;;;;;;;1.13;0.50;;;;;;;;;;4998227;28;20033;-77
2023/04/03 13:07:48;;;;;;;1.93;0.80;;;;;;;;;;4994956;28;20030;-77
2023/04/03 13:10:16;;;;;;;2.17;0.43;;;;;;;;;;4989444;28;20041;-77
2023/04/03 13:12:46;;;;;;;1.93;0.30;;;;;;;;;;4990354;28;20045;-77
2023/04/03 13:15:18;;;;;;;2.63;0.70;;;;;;;;;;4991478;28;20113;-76
2023/04/03 13:17:44;;;;;;;3.30;0.70;;;;;;;;;;4989703;28;20030;-77
2023/04/03 13:20:15;;;;;;;2.80;0.70;;;;;;;;;;4994709;28;20160;-77
2023/04/03 13:22:48;;;;;;;1.57;0.70;;;;;;;;;;4993327;28;20038;-77
2023/04/03 13:25:15;;;;;;;4.00;0.60;;;;;;;;;;4991568;28;20026;-76
2023/04/03 13:27:43;;;;;;;2.50;0.77;;;;;;;;;;5007464;28;20065;-77
2023/04/03 13:30:20;;;;;;;2.77;0.77;;;;;;;;;;4993883;28;20034;-77
2023/04/03 13:32:46;;;;;;;1.23;0.60;;;;;;;;;;4994512;28;20030;-76
2023/04/03 13:35:44;;;;;;;1.93;0.83;;;;;;;;;;4996882;28;20107;-76
2023/04/03 13:38:20;;;;;;;2.40;0.90;;;;;;;;;;4954870;28;20046;-76
2023/04/03 13:40:53;;;;;;;4.00;1.20;;;;;;;;;;5008491;28;20057;-77
2023/04/03 13:43:21;;;;;;;2.33;0.70;;;;;;;;;;4995612;28;20034;-78
2023/04/03 13:45:58;;;;;;;2.55;0.90;;;;;;;;;;4995777;28;20030;-78
2023/04/03 13:48:25;;;;;;;3.33;1.00;;;;;;;;;;5008527;28;20033;-78
2023/04/03 13:50:57;;;;;;;3.67;2.03;;;;;;;;;;4993157;28;20036;-78
2023/04/03 13:53:23;;;;;;;2.47;0.85;;;;;;;;;;4990013;28;20026;-78
2023/04/03 13:56:04;;;;;;;2.67;0.68;;;;;;;;;;4993073;28;20041;-77
2023/04/03 13:58:32;;;;;;;2.00;0.82;;;;;;;;;;5007793;28;20026;-77